釧路空港の過去48時間の天気

釧路空港 (Kushiro)

現在時刻: 2/21 10:57 JST (2/21 01:57 UTC) 以下の時間は現地時間です。

過去48時間のMETAR気象情報
時間 風向 風速(m/s) 視程 気温(℃) 湿度(%) 気圧(hPa) 天気現象
21 10:00 南南東 3 10km以上 -2 59 1029
21 09:00 南南東 2 10km以上 -3 63 1029
21 08:00 不定 1 10km以上 -5 63 1029
21 07:00 北東 1 10km以上 -7 79 1029
21 06:45 不定 1 10km以上 -7 79 1029
RJCK 210100Z 16006KT 9999 FEW030 M02/M09 Q1029
RJCK 210000Z 15004KT 100V170 9999 FEW030 M03/M09 Q1029
RJCK 202300Z VRB01KT 9999 FEW030 M05/M11 Q1029
RJCK 202200Z 04002KT 9999 FEW030 M07/M10 Q1029
RJCK 202145Z VRB02KT 9999 FEW030 M07/M10 Q1029 RMK 1CU030 A3039